createdAt,value
2022-08-05T00:02:07.859Z,26.10
2022-08-05T00:04:38.340Z,25.80
2022-08-05T00:07:27.490Z,26.10
2022-08-05T00:09:54.613Z,26.00
2022-08-05T00:12:21.581Z,25.70
2022-08-05T00:14:51.871Z,25.60
2022-08-05T00:17:19.425Z,25.90
2022-08-05T00:20:02.396Z,26.20
2022-08-05T00:22:30.117Z,26.30
2022-08-05T00:24:57.953Z,25.90
2022-08-05T00:27:36.179Z,25.50
2022-08-05T00:30:03.608Z,25.80
2022-08-05T00:32:30.541Z,26.10
2022-08-05T00:35:06.203Z,26.30
2022-08-05T00:37:50.420Z,25.90
2022-08-05T00:40:27.034Z,25.50
2022-08-05T00:42:55.452Z,25.80
2022-08-05T00:45:28.276Z,26.20
2022-08-05T00:48:06.397Z,26.10
2022-08-05T00:50:33.944Z,25.60
2022-08-05T00:53:01.522Z,25.60
2022-08-05T00:55:42.393Z,25.80
2022-08-05T00:58:11.186Z,25.70
2022-08-05T01:00:38.533Z,26.10
2022-08-05T01:03:07.606Z,26.10
2022-08-05T01:05:35.081Z,26.00
2022-08-05T01:08:40.529Z,26.40
2022-08-05T01:10:52.575Z,26.30
2022-08-05T01:13:22.415Z,25.80
2022-08-05T01:15:54.199Z,25.80
2022-08-05T01:18:21.645Z,26.20
2022-08-05T01:20:48.543Z,26.10
2022-08-05T01:23:23.402Z,26.00
2022-08-05T01:25:53.699Z,25.90
2022-08-05T01:28:20.946Z,25.70
2022-08-05T01:30:53.621Z,25.90
2022-08-05T01:33:22.189Z,26.10
2022-08-05T01:35:53.439Z,26.30
2022-08-05T01:38:24.788Z,25.90
2022-08-05T01:40:55.992Z,26.00
2022-08-05T01:43:24.271Z,26.30
2022-08-05T01:45:56.468Z,26.00
2022-08-05T01:48:23.898Z,25.70
2022-08-05T01:50:51.498Z,25.90
2022-08-05T01:53:37.361Z,26.10
2022-08-05T01:56:05.397Z,25.80
2022-08-05T01:58:44.769Z,25.80
2022-08-05T02:01:17.546Z,26.20
2022-08-05T02:03:52.213Z,26.20
2022-08-05T02:06:37.433Z,25.80
2022-08-05T02:09:05.797Z,25.90
2022-08-05T02:11:33.980Z,26.10
2022-08-05T02:14:01.152Z,25.70
2022-08-05T02:16:28.576Z,25.80
2022-08-05T02:18:55.720Z,25.80
2022-08-05T02:21:22.622Z,25.60
2022-08-05T02:23:49.571Z,25.50
2022-08-05T02:26:17.229Z,25.70
2022-08-05T02:28:45.903Z,25.70
2022-08-05T02:31:14.712Z,25.50
2022-08-05T02:33:41.855Z,25.50
2022-08-05T02:36:09.473Z,25.30
2022-08-05T02:38:36.568Z,25.70
2022-08-05T02:41:06.429Z,26.00
2022-08-05T02:44:06.299Z,25.90
2022-08-05T02:46:28.756Z,26.00
2022-08-05T02:48:56.807Z,26.40
2022-08-05T02:51:28.395Z,26.10
2022-08-05T02:54:10.708Z,25.70
2022-08-05T02:56:57.657Z,25.90
2022-08-05T02:59:26.992Z,26.30
2022-08-05T03:01:54.749Z,26.20
2022-08-05T03:04:23.060Z,26.00
2022-08-05T03:06:55.890Z,26.00
2022-08-05T03:09:36.326Z,25.80
2022-08-05T03:12:04.952Z,26.00
2022-08-05T03:14:31.896Z,26.30
2022-08-05T03:16:59.155Z,26.30
2022-08-05T03:19:34.594Z,26.00
2022-08-05T03:22:04.666Z,25.60
2022-08-05T03:24:32.212Z,25.90
2022-08-05T03:27:00.653Z,26.10
2022-08-05T03:29:45.990Z,26.10
2022-08-05T03:32:16.233Z,25.80
2022-08-05T03:34:51.024Z,26.00
2022-08-05T03:37:18.445Z,25.80
2022-08-05T03:39:59.455Z,26.10
2022-08-05T03:42:32.246Z,26.40
2022-08-05T03:45:01.808Z,26.00
2022-08-05T03:47:35.372Z,26.20
2022-08-05T03:50:08.401Z,26.50
2022-08-05T03:55:00.056Z,26.30
2022-08-05T03:56:05.756Z,26.50
2022-08-05T03:58:11.105Z,26.60
2022-08-05T04:00:38.002Z,26.30
2022-08-05T04:03:09.101Z,26.50
2022-08-05T04:05:53.506Z,26.60
2022-08-05T04:08:30.107Z,26.30
2022-08-05T04:11:03.594Z,26.40
2022-08-05T04:13:50.632Z,26.60
2022-08-05T04:16:25.187Z,26.20
2022-08-05T04:18:53.916Z,26.20
2022-08-05T04:22:10.247Z,26.50
2022-08-05T04:24:09.045Z,26.40
2022-08-05T04:26:45.915Z,25.90
2022-08-05T04:29:14.367Z,26.10
2022-08-05T04:31:41.325Z,26.10
2022-08-05T04:34:31.830Z,25.80
2022-08-05T04:36:56.937Z,26.20
2022-08-05T04:39:23.827Z,26.30
2022-08-05T04:41:51.037Z,26.00
2022-08-05T04:44:21.321Z,25.60
2022-08-05T04:46:56.114Z,25.90
2022-08-05T04:49:24.624Z,26.10
2022-08-05T04:52:05.217Z,25.80
2022-08-05T04:54:34.609Z,25.60
2022-08-05T04:57:01.678Z,25.50
2022-08-05T04:59:39.232Z,25.30
2022-08-05T05:02:37.701Z,25.80
2022-08-05T05:05:01.873Z,26.20
2022-08-05T05:07:32.239Z,26.10
2022-08-05T05:10:02.303Z,26.10
2022-08-05T05:12:30.098Z,26.00
2022-08-05T05:14:56.952Z,25.80
2022-08-05T05:17:55.412Z,25.80
2022-08-05T05:20:10.878Z,25.70
2022-08-05T05:22:40.793Z,26.00
2022-08-05T05:25:16.495Z,26.10
2022-08-05T05:27:53.670Z,26.10
2022-08-05T05:30:31.108Z,26.30
2022-08-05T05:33:03.483Z,26.10
2022-08-05T05:35:39.758Z,26.10
2022-08-05T05:38:13.885Z,26.40
2022-08-05T05:40:48.099Z,26.30
2022-08-05T05:43:27.736Z,26.00
2022-08-05T05:46:06.895Z,25.90
2022-08-05T05:48:37.873Z,25.60
2022-08-05T05:51:15.462Z,25.70
2022-08-05T05:53:54.159Z,26.10
2022-08-05T05:56:26.206Z,26.10
2022-08-05T05:59:03.444Z,25.90
2022-08-05T06:01:37.038Z,26.30
2022-08-05T06:04:05.683Z,26.30
2022-08-05T06:06:33.171Z,25.90
2022-08-05T06:09:01.834Z,25.60
2022-08-05T06:11:30.936Z,25.90
2022-08-05T06:13:57.973Z,26.10
2022-08-05T06:16:36.627Z,25.70
2022-08-05T06:19:05.965Z,26.10
2022-08-05T06:21:36.481Z,26.40
2022-08-05T06:24:04.401Z,26.40
2022-08-05T06:26:33.858Z,26.20
2022-08-05T06:29:03.665Z,26.20
2022-08-05T06:31:48.976Z,26.10
2022-08-05T06:34:19.991Z,25.90
2022-08-05T06:36:56.871Z,25.90
2022-08-05T06:39:27.231Z,25.80
2022-08-05T06:41:54.887Z,25.90
2022-08-05T06:44:22.248Z,25.80
2022-08-05T06:46:50.839Z,25.90
2022-08-05T06:49:18.922Z,25.60
2022-08-05T06:51:48.587Z,25.40
2022-08-05T06:54:19.141Z,25.60
2022-08-05T06:56:55.072Z,25.90
2022-08-05T06:59:38.784Z,25.90
2022-08-05T07:02:09.430Z,25.70
2022-08-05T07:04:36.438Z,25.50
2022-08-05T07:07:03.448Z,25.40
2022-08-05T07:09:37.458Z,25.60
2022-08-05T07:12:07.721Z,25.60
2022-08-05T07:14:35.258Z,25.30
2022-08-05T07:18:02.422Z,25.10
2022-08-05T07:22:42.173Z,25.70
2022-08-05T07:25:22.695Z,25.80
2022-08-05T07:28:00.800Z,25.60
2022-08-05T07:30:33.793Z,25.50
2022-08-05T07:33:05.008Z,25.40
2022-08-05T07:36:02.115Z,25.30
2022-08-05T07:38:32.710Z,25.20
2022-08-05T07:41:16.869Z,25.20
2022-08-05T07:43:48.603Z,25.20
2022-08-05T07:46:24.502Z,25.00
2022-08-05T07:49:04.048Z,25.00
2022-08-05T07:51:36.645Z,25.30
2022-08-05T07:54:04.756Z,25.50
2022-08-05T07:56:39.069Z,25.40
2022-08-05T07:59:23.322Z,25.30
2022-08-05T08:02:06.071Z,25.00
2022-08-05T08:04:42.387Z,24.90
2022-08-05T08:07:11.849Z,25.40
2022-08-05T08:09:38.957Z,25.80
2022-08-05T08:12:16.489Z,25.70
2022-08-05T08:14:53.245Z,25.50
2022-08-05T08:17:21.234Z,25.40
2022-08-05T08:20:22.360Z,25.30
2022-08-05T08:22:35.757Z,25.20
2022-08-05T08:25:03.967Z,25.30
2022-08-05T08:27:44.996Z,25.30
2022-08-05T08:30:29.550Z,25.30
2022-08-05T08:33:02.763Z,25.40
2022-08-05T08:35:34.732Z,25.30
2022-08-05T08:38:01.971Z,25.30
2022-08-05T08:40:28.921Z,25.30
2022-08-05T08:42:56.816Z,25.30
2022-08-05T08:45:27.068Z,25.30
2022-08-05T08:48:12.545Z,25.30
2022-08-05T08:51:22.350Z,25.20
2022-08-05T08:53:30.979Z,25.20
2022-08-05T08:56:04.801Z,25.30
2022-08-05T08:58:36.907Z,25.20
2022-08-05T09:01:04.596Z,25.30
2022-08-05T09:03:40.638Z,25.30
2022-08-05T09:06:15.761Z,25.30
2022-08-05T09:08:44.070Z,25.50
2022-08-05T09:11:13.594Z,26.00
2022-08-05T09:14:10.344Z,26.40
2022-08-05T09:16:28.093Z,26.50
2022-08-05T09:18:55.470Z,26.10
2022-08-05T09:22:22.686Z,26.30
2022-08-05T09:24:10.154Z,26.60
2022-08-05T09:26:37.576Z,26.50
2022-08-05T09:29:04.455Z,26.50
2022-08-05T09:32:40.092Z,26.50
2022-08-05T09:34:18.638Z,26.30
2022-08-05T09:36:54.821Z,26.30
2022-08-05T09:39:23.631Z,26.40
2022-08-05T09:42:07.726Z,26.30
2022-08-05T09:44:34.787Z,26.10
2022-08-05T09:47:03.692Z,26.20
2022-08-05T09:49:40.354Z,26.20
2022-08-05T09:52:24.509Z,26.20
2022-08-05T09:54:52.750Z,26.20
2022-08-05T09:57:21.017Z,26.20
2022-08-05T09:59:50.893Z,26.20
2022-08-05T10:02:19.063Z,26.20
2022-08-05T10:04:47.565Z,26.20
2022-08-05T10:07:20.026Z,26.20
2022-08-05T10:10:14.799Z,26.20
2022-08-05T10:12:49.827Z,26.30
2022-08-05T10:15:20.233Z,26.30
2022-08-05T10:17:56.601Z,26.30
2022-08-05T10:20:25.066Z,26.30
2022-08-05T10:22:52.041Z,26.40
2022-08-05T10:25:19.712Z,26.40
2022-08-05T10:28:13.057Z,26.40
2022-08-05T10:31:19.977Z,26.40
2022-08-05T10:33:21.275Z,26.50
2022-08-05T10:35:59.799Z,26.60
2022-08-05T10:38:27.110Z,26.60
2022-08-05T10:40:57.993Z,26.50
2022-08-05T10:43:30.823Z,26.40
2022-08-05T10:46:06.184Z,26.40
2022-08-05T10:48:39.548Z,26.40
2022-08-05T10:51:21.879Z,26.50
2022-08-05T10:53:49.991Z,26.40
2022-08-05T10:56:25.503Z,26.50
2022-08-05T10:58:53.194Z,26.50
2022-08-05T11:01:28.207Z,26.40
2022-08-05T11:04:07.271Z,26.10
2022-08-05T11:06:34.263Z,26.00
2022-08-05T11:09:01.417Z,26.00
2022-08-05T11:11:33.148Z,26.10
2022-08-05T11:14:12.067Z,26.20
2022-08-05T11:16:56.194Z,26.30
2022-08-05T11:20:16.683Z,26.30
2022-08-05T11:22:12.772Z,26.40
2022-08-05T11:24:41.418Z,26.50
2022-08-05T11:27:28.684Z,26.60
2022-08-05T11:30:15.607Z,26.50
2022-08-05T11:32:42.530Z,26.40
2022-08-05T11:35:15.543Z,26.20
2022-08-05T11:38:30.350Z,26.00
2022-08-05T11:40:29.598Z,25.90
2022-08-05T11:42:56.840Z,25.80
2022-08-05T11:46:14.654Z,25.80
2022-08-05T11:48:11.677Z,26.00
2022-08-05T11:50:38.568Z,26.20
2022-08-05T11:53:09.754Z,26.40
2022-08-05T11:55:37.237Z,26.50
2022-08-05T11:58:10.796Z,26.60
2022-08-05T12:00:39.134Z,26.60
2022-08-05T12:03:08.370Z,26.40
2022-08-05T12:05:39.787Z,26.30
2022-08-05T12:08:09.716Z,26.20
2022-08-05T12:10:45.371Z,26.10
2022-08-05T12:13:15.933Z,26.10
2022-08-05T12:15:49.652Z,26.10
2022-08-05T12:18:17.490Z,26.00
2022-08-05T12:20:47.684Z,25.90
2022-08-05T12:23:14.789Z,25.90
2022-08-05T12:25:41.762Z,26.00
2022-08-05T12:28:09.183Z,26.10
2022-08-05T12:30:45.873Z,26.20
2022-08-05T12:33:27.272Z,26.30
2022-08-05T12:35:55.155Z,26.30
2022-08-05T12:38:22.240Z,26.40
2022-08-05T12:40:49.353Z,26.40
2022-08-05T12:43:20.982Z,26.50
2022-08-05T12:45:50.011Z,26.50
2022-08-05T12:48:27.155Z,26.50
2022-08-05T12:50:55.071Z,26.50
2022-08-05T12:53:36.822Z,26.50
2022-08-05T12:56:04.290Z,26.40
2022-08-05T12:58:54.771Z,26.40
2022-08-05T13:02:02.433Z,26.30
2022-08-05T13:04:17.804Z,26.30
2022-08-05T13:06:52.032Z,26.30
2022-08-05T13:09:28.342Z,26.20
2022-08-05T13:12:01.811Z,26.20
2022-08-05T13:14:36.533Z,26.20
2022-08-05T13:17:03.796Z,26.20
2022-08-05T13:19:51.043Z,26.10
2022-08-05T13:22:28.105Z,26.10
2022-08-05T13:24:58.086Z,26.10
2022-08-05T13:27:35.708Z,26.10
2022-08-05T13:30:33.920Z,26.10
2022-08-05T13:32:52.700Z,26.00
2022-08-05T13:35:43.101Z,25.90
2022-08-05T13:38:20.273Z,25.90
2022-08-05T13:40:57.456Z,25.90
2022-08-05T13:43:24.368Z,25.90
2022-08-05T13:46:11.578Z,25.80
2022-08-05T13:48:57.169Z,25.70
2022-08-05T13:51:25.645Z,25.70
2022-08-05T13:53:56.459Z,25.70
2022-08-05T13:56:24.993Z,25.60
2022-08-05T13:58:53.449Z,25.80
2022-08-05T14:01:23.663Z,26.20
2022-08-05T14:03:54.477Z,26.50
2022-08-05T14:06:25.185Z,26.20
2022-08-05T14:08:53.563Z,26.10
2022-08-05T14:11:22.079Z,26.40
2022-08-05T14:13:49.217Z,26.60
2022-08-05T14:16:22.020Z,26.50
2022-08-05T14:18:49.057Z,26.30
2022-08-05T14:22:07.117Z,26.10
2022-08-05T14:24:03.621Z,26.00
2022-08-05T14:26:38.675Z,25.80
2022-08-05T14:29:16.158Z,25.70
2022-08-05T14:32:02.274Z,25.90
2022-08-05T14:34:35.112Z,26.30
2022-08-05T14:37:02.597Z,26.50
2022-08-05T14:39:29.651Z,26.30
2022-08-05T14:42:19.322Z,26.60
2022-08-05T14:44:43.933Z,26.60
2022-08-05T14:47:10.828Z,26.20
2022-08-05T14:49:59.399Z,25.90
2022-08-05T14:52:50.499Z,25.50
2022-08-05T14:55:15.418Z,25.70
2022-08-05T14:57:56.045Z,25.80
2022-08-05T15:00:25.207Z,25.60
2022-08-05T15:02:55.492Z,25.60
2022-08-05T15:05:29.797Z,25.30
2022-08-05T15:08:16.836Z,25.50
2022-08-05T15:10:57.128Z,25.60
2022-08-05T15:13:28.514Z,25.50
2022-08-05T15:16:13.181Z,25.30
2022-08-05T15:18:40.172Z,25.20
2022-08-05T15:21:08.404Z,25.50
2022-08-05T15:23:35.351Z,25.80
2022-08-05T15:26:05.114Z,25.80
2022-08-05T15:28:34.114Z,25.50
2022-08-05T15:31:03.628Z,25.60
2022-08-05T15:34:05.761Z,25.60
2022-08-05T15:36:24.742Z,25.70
2022-08-05T15:40:41.604Z,26.10
2022-08-05T15:41:57.451Z,25.90
2022-08-05T15:44:26.016Z,25.60
2022-08-05T15:46:54.619Z,25.50
2022-08-05T15:49:39.923Z,25.20
2022-08-05T15:52:16.335Z,25.30
2022-08-05T15:54:55.980Z,25.90
2022-08-05T15:57:23.811Z,26.10
2022-08-05T15:59:54.000Z,26.10
2022-08-05T16:02:25.303Z,25.90
2022-08-05T16:04:52.716Z,25.80
2022-08-05T16:07:19.786Z,25.60
2022-08-05T16:09:50.033Z,25.60
2022-08-05T16:12:16.921Z,25.60
2022-08-05T16:14:46.897Z,25.20
2022-08-05T16:17:13.841Z,25.30
2022-08-05T16:20:04.270Z,25.60
2022-08-05T16:22:33.869Z,25.80
2022-08-05T16:25:05.373Z,25.40
2022-08-05T16:27:59.848Z,25.50
2022-08-05T16:30:26.712Z,25.80
2022-08-05T16:32:55.973Z,26.20
2022-08-05T16:35:28.158Z,26.10
2022-08-05T16:38:16.051Z,25.70
2022-08-05T16:40:51.773Z,25.40
2022-08-05T16:43:23.714Z,25.30
2022-08-05T16:46:03.643Z,25.70
2022-08-05T16:48:36.313Z,25.60
2022-08-05T16:51:08.705Z,25.70
2022-08-05T16:54:05.991Z,26.00
2022-08-05T16:56:23.608Z,25.80
2022-08-05T16:58:50.472Z,25.50
2022-08-05T17:01:18.768Z,25.40
2022-08-05T17:03:46.018Z,25.20
2022-08-05T17:06:12.955Z,25.40
2022-08-05T17:08:53.611Z,25.70
2022-08-05T17:11:23.336Z,25.80
2022-08-05T17:14:00.504Z,25.50
2022-08-05T17:16:35.929Z,25.50
2022-08-05T17:19:03.250Z,25.60
2022-08-05T17:21:36.294Z,25.60
2022-08-05T17:24:14.190Z,26.00
2022-08-05T17:26:50.452Z,26.00
2022-08-05T17:29:17.712Z,25.90
2022-08-05T17:31:57.268Z,25.70
2022-08-05T17:34:30.274Z,25.60
2022-08-05T17:36:59.516Z,25.80
2022-08-05T17:39:33.932Z,26.00
2022-08-05T17:42:18.831Z,26.00
2022-08-05T17:44:50.067Z,25.60
2022-08-05T17:47:18.318Z,25.70
2022-08-05T17:49:52.054Z,25.70
2022-08-05T17:52:27.941Z,25.60
2022-08-05T17:54:55.269Z,25.90
2022-08-05T17:57:22.384Z,26.00
2022-08-05T18:00:03.316Z,25.90
2022-08-05T18:02:31.768Z,26.10
2022-08-05T18:04:59.149Z,25.90
2022-08-05T18:07:32.736Z,25.90
2022-08-05T18:10:10.101Z,26.20
2022-08-05T18:12:37.496Z,26.20
2022-08-05T18:15:04.847Z,26.10
2022-08-05T18:17:58.856Z,26.30
2022-08-05T18:20:19.024Z,26.30
2022-08-05T18:22:54.245Z,25.80
2022-08-05T18:25:22.154Z,25.70
2022-08-05T18:27:52.238Z,25.90
2022-08-05T18:30:19.722Z,25.70
2022-08-05T18:32:53.708Z,26.10
2022-08-05T18:35:28.354Z,26.20
2022-08-05T18:38:19.194Z,25.90
2022-08-05T18:41:53.397Z,26.10
2022-08-05T18:43:38.336Z,26.20
2022-08-05T18:46:10.297Z,25.90
2022-08-05T18:48:41.836Z,25.60
2022-08-05T18:52:03.976Z,25.50
2022-08-05T18:53:55.916Z,25.60
2022-08-05T18:56:25.387Z,25.80
2022-08-05T18:58:54.698Z,26.00
2022-08-05T19:01:33.302Z,25.70
2022-08-05T19:04:14.768Z,25.80
2022-08-05T19:06:51.168Z,25.70
2022-08-05T19:09:18.056Z,25.50
2022-08-05T19:12:00.986Z,25.70
2022-08-05T19:14:59.517Z,25.80
2022-08-05T19:17:16.406Z,25.70
2022-08-05T19:19:46.464Z,26.10
2022-08-05T19:22:17.106Z,26.00
2022-08-05T19:24:54.193Z,25.80
2022-08-05T19:27:23.863Z,25.90
2022-08-05T19:29:51.094Z,25.90
2022-08-05T19:32:18.132Z,25.60
2022-08-05T19:34:54.992Z,26.00
2022-08-05T19:37:22.553Z,26.10
2022-08-05T19:40:02.455Z,25.80
2022-08-05T19:42:36.419Z,26.10
2022-08-05T19:45:06.259Z,26.20
2022-08-05T19:47:33.990Z,26.00
2022-08-05T19:50:01.056Z,26.30
2022-08-05T19:52:31.808Z,26.20
2022-08-05T19:55:00.370Z,25.90
2022-08-05T19:57:49.354Z,26.10
2022-08-05T20:00:14.505Z,26.30
2022-08-05T20:02:41.457Z,26.10
2022-08-05T20:05:09.630Z,26.30
2022-08-05T20:07:48.639Z,26.30
2022-08-05T20:10:16.105Z,26.10
2022-08-05T20:12:47.718Z,26.30
2022-08-05T20:15:15.565Z,26.40
2022-08-05T20:17:50.579Z,26.30
2022-08-05T20:20:17.481Z,26.40
2022-08-05T20:22:44.503Z,26.40
2022-08-05T20:25:13.797Z,26.10
2022-08-05T20:27:41.849Z,26.30
2022-08-05T20:30:09.066Z,26.30
2022-08-05T20:32:36.961Z,26.10
2022-08-05T20:35:12.157Z,25.80
2022-08-05T20:38:06.087Z,25.70
2022-08-05T20:40:26.099Z,25.90
2022-08-05T20:42:53.975Z,26.10
2022-08-05T20:45:47.927Z,26.20
2022-08-05T20:48:16.568Z,25.90
2022-08-05T20:50:45.410Z,26.00
2022-08-05T20:53:16.064Z,25.80
2022-08-05T20:56:08.328Z,25.70
2022-08-05T20:58:36.267Z,26.20
2022-08-05T21:01:03.929Z,26.20
2022-08-05T21:03:34.318Z,26.00
2022-08-05T21:06:01.654Z,25.90
2022-08-05T21:08:41.993Z,25.70
2022-08-05T21:11:12.016Z,25.60
2022-08-05T21:13:48.497Z,25.80
2022-08-05T21:16:23.540Z,25.80
2022-08-05T21:18:57.222Z,25.70
2022-08-05T21:21:43.723Z,26.10
2022-08-05T21:24:13.021Z,26.00
2022-08-05T21:26:40.193Z,25.90
2022-08-05T21:29:10.074Z,26.20
2022-08-05T21:31:41.274Z,26.10
2022-08-05T21:34:08.699Z,25.90
2022-08-05T21:36:37.497Z,26.30
2022-08-05T21:39:04.509Z,26.20
2022-08-05T21:41:32.952Z,26.10
2022-08-05T21:44:03.819Z,26.20
2022-08-05T21:46:31.538Z,26.30
2022-08-05T21:49:01.324Z,25.90
2022-08-05T21:52:15.821Z,26.00
2022-08-05T21:54:15.106Z,26.20
2022-08-05T21:56:51.482Z,25.90
2022-08-05T21:59:24.083Z,26.10
2022-08-05T22:01:54.524Z,26.30
2022-08-05T22:04:25.434Z,26.00
2022-08-05T22:06:52.562Z,26.00
2022-08-05T22:09:21.029Z,26.20
2022-08-05T22:11:48.756Z,26.00
2022-08-05T22:14:33.443Z,26.00
2022-08-05T22:17:04.971Z,26.20
2022-08-05T22:20:03.575Z,26.00
2022-08-05T22:22:27.418Z,26.10
2022-08-05T22:24:56.002Z,26.30
2022-08-05T22:27:23.031Z,26.00
2022-08-05T22:29:49.923Z,26.00
2022-08-05T22:32:21.269Z,26.30
2022-08-05T22:34:50.045Z,26.10
2022-08-05T22:37:17.009Z,26.00
2022-08-05T22:39:45.338Z,26.30
2022-08-05T22:42:21.503Z,26.20
2022-08-05T22:44:56.460Z,26.00
2022-08-05T22:47:29.406Z,26.20
2022-08-05T22:50:21.473Z,26.20
2022-08-05T22:52:44.484Z,26.00
2022-08-05T22:55:18.970Z,26.30
2022-08-05T22:57:46.984Z,26.30
2022-08-05T23:00:18.401Z,26.00
2022-08-05T23:02:48.237Z,26.20
2022-08-05T23:05:15.322Z,26.20
2022-08-05T23:07:44.070Z,26.10
2022-08-05T23:10:12.534Z,26.30
2022-08-05T23:12:39.506Z,26.20
2022-08-05T23:15:08.734Z,25.80
2022-08-05T23:17:59.595Z,25.90
2022-08-05T23:20:23.475Z,26.20
2022-08-05T23:22:55.910Z,26.00
2022-08-05T23:25:52.254Z,26.20
2022-08-05T23:28:10.480Z,26.30
2022-08-05T23:30:40.473Z,26.10
2022-08-05T23:33:21.871Z,26.30
2022-08-05T23:35:52.517Z,26.30
2022-08-05T23:38:23.220Z,26.00
2022-08-05T23:40:52.641Z,26.20
2022-08-05T23:43:25.335Z,26.40
2022-08-05T23:46:04.426Z,26.10
2022-08-05T23:48:31.362Z,26.30
2022-08-05T23:50:58.577Z,26.30
2022-08-05T23:53:28.332Z,26.10
2022-08-05T23:56:12.529Z,26.20
2022-08-05T23:58:47.143Z,26.30
